Time;durP1;ratioP1;P1;durP2;ratioP2;P2;SDS_P1;SDS_P2;PMS_P1;PMS_P2;Temp;Humidity;BMP_temperature;BMP_pressure;BME280_temperature;BME280_humidity;BME280_pressure;Samples;Min_cycle;Max_cycle;Signal;HPM_P1;HPM_P2
2023/04/10 00:01:50;;;;;;;57.30;37.22;;;9.70;99.90;;;;;;5070788;28;20039;-52
2023/04/10 00:04:15;;;;;;;62.30;37.63;;;9.50;99.90;;;;;;5071869;28;20032;-59
2023/04/10 00:06:41;;;;;;;60.30;43.33;;;9.50;99.90;;;;;;5070826;28;20081;-57
2023/04/10 00:09:08;;;;;;;65.00;38.63;;;9.50;99.90;;;;;;5071743;28;20106;-56
2023/04/10 00:11:34;;;;;;;62.88;37.83;;;9.50;99.90;;;;;;5070387;28;20040;-55
2023/04/10 00:14:00;;;;;;;57.75;43.50;;;9.40;99.90;;;;;;5071372;28;20392;-56
2023/04/10 00:16:26;;;;;;;61.65;37.95;;;9.40;99.90;;;;;;5071769;28;20089;-54
2023/04/10 00:18:51;;;;;;;61.97;38.70;;;9.40;99.90;;;;;;5071594;28;20036;-52
2023/04/10 00:21:17;;;;;;;61.35;37.90;;;9.40;99.90;;;;;;5069407;28;20063;-55
2023/04/10 00:23:43;;;;;;;63.00;38.90;;;9.40;99.90;;;;;;5071782;28;20063;-52
2023/04/10 00:26:09;;;;;;;64.30;39.05;;;9.30;99.90;;;;;;5070885;28;20048;-56
2023/04/10 00:28:37;;;;;;;60.25;37.78;;;9.30;99.90;;;;;;5069985;28;20093;-55
2023/04/10 00:31:06;;;;;;;57.22;38.75;;;9.30;99.90;;;;;;5071200;28;20418;-53
2023/04/10 00:33:31;;;;;;;58.72;37.25;;;9.20;99.90;;;;;;5071041;28;20043;-57
2023/04/10 00:35:57;;;;;;;63.13;37.97;;;9.10;99.90;;;;;;5071390;28;20032;-53
2023/04/10 00:38:23;;;;;;;62.40;37.53;;;9.20;99.90;;;;;;5071304;28;20143;-52
2023/04/10 00:40:48;;;;;;;56.58;35.78;;;9.10;99.90;;;;;;5071283;28;20028;-55
2023/04/10 00:43:15;;;;;;;59.45;36.38;;;9.10;99.90;;;;;;5070955;28;20037;-54
2023/04/10 00:45:41;;;;;;;61.22;37.75;;;9.10;99.90;;;;;;5071277;28;20053;-58
2023/04/10 00:48:07;;;;;;;61.72;37.53;;;9.00;99.90;;;;;;5070822;28;20036;-50
2023/04/10 00:50:33;;;;;;;59.53;36.58;;;9.00;99.90;;;;;;5069515;28;20122;-54
2023/04/10 00:52:58;;;;;;;61.10;38.17;;;9.00;99.90;;;;;;5070869;28;20052;-57
2023/04/10 00:55:25;;;;;;;62.33;38.38;;;8.90;99.90;;;;;;5070829;28;20434;-56
2023/04/10 00:57:51;;;;;;;62.42;37.17;;;8.90;99.90;;;;;;5070317;28;20036;-54
2023/04/10 01:00:17;;;;;;;59.35;37.05;;;8.90;99.90;;;;;;5070986;28;20148;-59
2023/04/10 01:02:43;;;;;;;62.38;36.53;;;8.80;99.90;;;;;;5070600;28;20048;-58
2023/04/10 01:05:11;;;;;;;60.42;36.50;;;8.80;99.90;;;;;;5071049;28;20039;-55
2023/04/10 01:07:58;;;;;;;59.70;37.15;;;9.00;99.90;;;;;;5070823;28;20561;-54
2023/04/10 01:10:57;;;;;;;61.70;37.17;;;8.70;99.90;;;;;;5070151;28;20044;-55
2023/04/10 01:13:47;;;;;;;61.30;38.22;;;8.70;99.90;;;;;;5069402;28;20040;-54
2023/04/10 01:16:35;;;;;;;65.70;39.22;;;8.60;99.90;;;;;;5070560;28;20372;-55
2023/04/10 01:19:39;;;;;;;56.75;44.17;;;8.60;99.90;;;;;;5070684;28;20369;-56
2023/04/10 01:22:10;;;;;;;62.92;37.20;;;8.60;99.90;;;;;;5069898;28;20494;-58
2023/04/10 01:24:53;;;;;;;59.15;35.05;;;8.60;99.90;;;;;;5069639;28;20036;-56
2023/04/10 01:27:51;;;;;;;59.92;37.60;;;8.60;99.90;;;;;;5069998;28;20052;-54
2023/04/10 01:30:20;;;;;;;59.97;37.33;;;8.50;99.90;;;;;;5061294;28;20600;-58
2023/04/10 01:32:48;;;;;;;55.13;45.42;;;8.50;99.90;;;;;;5070723;28;20393;-56
2023/04/10 01:35:15;;;;;;;63.42;38.78;;;8.50;99.90;;;;;;5069180;28;20039;-53
2023/04/10 01:37:43;;;;;;;59.72;37.15;;;8.40;99.90;;;;;;5070582;28;20055;-57
2023/04/10 01:40:15;;;;;;;62.63;37.85;;;8.40;99.90;;;;;;5070150;28;20060;-52
2023/04/10 01:42:54;;;;;;;58.70;38.50;;;8.30;99.90;;;;;;5070403;28;20127;-56
2023/04/10 01:45:23;;;;;;;66.28;37.78;;;8.30;99.90;;;;;;5070078;28;20369;-55
2023/04/10 01:47:50;;;;;;;62.50;38.25;;;8.30;99.90;;;;;;5070214;28;20072;-57
2023/04/10 01:50:16;;;;;;;59.22;37.17;;;8.20;99.90;;;;;;5068741;28;20048;-61
2023/04/10 01:52:44;;;;;;;61.80;36.78;;;8.20;99.90;;;;;;5070342;28;20044;-60
2023/04/10 01:55:10;;;;;;;60.95;36.05;;;8.20;99.90;;;;;;5070252;28;20128;-54
2023/04/10 01:57:36;;;;;;;58.97;37.00;;;8.10;99.90;;;;;;5068246;28;20048;-56
2023/04/10 02:00:03;;;;;;;59.08;37.63;;;8.20;99.90;;;;;;5072578;28;20075;-54
2023/04/10 02:02:32;;;;;;;59.80;37.17;;;8.20;99.90;;;;;;5074588;28;20097;-52
2023/04/10 02:04:58;;;;;;;59.35;35.25;;;8.10;99.90;;;;;;5074378;28;20032;-54
2023/04/10 02:07:38;;;;;;;53.72;33.92;;;8.10;99.90;;;;;;5074211;28;20035;-54
2023/04/10 02:10:12;;;;;;;56.03;35.58;;;8.10;99.90;;;;;;5074194;28;20161;-52
2023/04/10 02:12:45;;;;;;;58.65;34.80;;;8.10;99.90;;;;;;5073709;28;20040;-55
2023/04/10 02:15:11;;;;;;;55.57;32.67;;;8.00;99.90;;;;;;5074466;28;20361;-55
2023/04/10 02:17:38;;;;;;;52.85;31.63;;;8.30;99.90;;;;;;5073746;28;20049;-55
2023/04/10 02:20:06;;;;;;;49.10;37.13;;;8.00;99.90;;;;;;5072487;28;20076;-58
2023/04/10 02:22:33;;;;;;;46.45;29.98;;;8.10;99.90;;;;;;5073730;28;20036;-55
2023/04/10 02:24:59;;;;;;;51.63;31.38;;;8.10;99.90;;;;;;5073729;28;20044;-54
2023/04/10 02:27:33;;;;;;;51.38;31.20;;;8.00;99.90;;;;;;5073850;28;20064;-56
2023/04/10 02:29:59;;;;;;;49.38;30.33;;;8.00;99.90;;;;;;5073512;28;20078;-60
2023/04/10 02:32:26;;;;;;;45.95;28.30;;;8.00;99.90;;;;;;5073599;28;20032;-52
2023/04/10 02:34:51;;;;;;;48.55;28.85;;;8.00;99.90;;;;;;5073971;28;20037;-57
2023/04/10 02:37:17;;;;;;;45.63;28.60;;;8.00;99.90;;;;;;5073870;28;20063;-54
2023/04/10 02:39:43;;;;;;;46.72;29.35;;;8.00;99.90;;;;;;5073796;28;20104;-56
2023/04/10 02:42:09;;;;;;;43.67;27.60;;;8.00;99.90;;;;;;5073017;28;20045;-55
2023/04/10 02:44:34;;;;;;;44.92;29.05;;;8.00;99.90;;;;;;5073155;28;20041;-54
2023/04/10 02:47:00;;;;;;;45.25;26.55;;;7.90;99.90;;;;;;5073640;28;20047;-58
2023/04/10 02:49:26;;;;;;;42.72;25.98;;;7.90;99.90;;;;;;5073384;28;20227;-57
2023/04/10 02:51:52;;;;;;;44.15;26.00;;;7.90;99.90;;;;;;5073135;28;20090;-56
2023/04/10 02:54:17;;;;;;;40.92;25.02;;;7.90;99.90;;;;;;5073421;28;20028;-54
2023/04/10 02:56:43;;;;;;;40.95;25.05;;;7.90;99.90;;;;;;5068938;28;20037;-58
2023/04/10 02:59:09;;;;;;;42.03;25.33;;;7.90;99.90;;;;;;5072860;28;20043;-58
2023/04/10 03:01:35;;;;;;;37.15;29.35;;;8.20;99.90;;;;;;5073255;28;20063;-49
2023/04/10 03:04:02;;;;;;;47.58;25.52;;;8.10;99.90;;;;;;5073186;28;20071;-58
2023/04/10 03:06:28;;;;;;;37.92;23.45;;;8.10;99.90;;;;;;5072771;28;20059;-53
2023/04/10 03:08:55;;;;;;;38.55;22.73;;;7.90;99.90;;;;;;5073269;28;20036;-60
2023/04/10 03:11:21;;;;;;;36.28;22.33;;;7.80;99.90;;;;;;5073168;28;20041;-56
2023/04/10 03:13:47;;;;;;;36.70;22.55;;;8.00;99.90;;;;;;5071717;28;20384;-55
2023/04/10 03:16:14;;;;;;;36.88;21.92;;;7.80;99.90;;;;;;5073005;28;20098;-56
2023/04/10 03:18:39;;;;;;;38.20;23.23;;;7.80;99.90;;;;;;5073039;28;20093;-53
2023/04/10 03:21:05;;;;;;;39.03;22.08;;;7.80;99.90;;;;;;5071216;28;20048;-58
2023/04/10 03:23:31;;;;;;;36.53;21.70;;;7.80;99.90;;;;;;5072654;28;20036;-54
2023/04/10 03:25:57;;;;;;;35.30;21.75;;;7.80;99.90;;;;;;5072931;28;20090;-52
2023/04/10 03:28:22;;;;;;;37.00;21.95;;;7.80;99.90;;;;;;5070974;28;20073;-56
2023/04/10 03:30:51;;;;;;;33.20;21.17;;;7.80;99.90;;;;;;5071186;28;20048;-57
2023/04/10 03:33:17;;;;;;;36.15;20.77;;;7.90;99.90;;;;;;5072467;28;20170;-57
2023/04/10 03:35:44;;;;;;;37.13;22.58;;;7.90;99.90;;;;;;5072749;28;20082;-52
2023/04/10 03:38:09;;;;;;;34.60;20.73;;;7.90;99.90;;;;;;5072289;28;20048;-59
2023/04/10 03:40:35;;;;;;;32.13;20.80;;;7.90;99.90;;;;;;5072303;28;20058;-55
2023/04/10 03:43:01;;;;;;;33.88;20.67;;;7.90;99.90;;;;;;5072258;28;20123;-56
2023/04/10 03:45:26;;;;;;;34.33;20.27;;;7.90;99.90;;;;;;5070627;28;20067;-57
2023/04/10 03:47:52;;;;;;;35.33;20.60;;;7.90;99.90;;;;;;5072167;28;20067;-53
2023/04/10 03:50:18;;;;;;;31.15;19.73;;;7.90;99.90;;;;;;5070901;28;20044;-56
2023/04/10 03:52:44;;;;;;;33.95;20.70;;;7.90;99.90;;;;;;5071761;28;20041;-60
2023/04/10 03:55:10;;;;;;;32.75;19.92;;;7.80;99.90;;;;;;5072291;28;20029;-59
2023/04/10 03:57:35;;;;;;;29.73;18.92;;;7.80;99.90;;;;;;5071891;28;20082;-56
2023/04/10 04:00:02;;;;;;;31.58;19.40;;;7.90;99.90;;;;;;5072074;28;20052;-50
2023/04/10 04:02:28;;;;;;;33.80;19.83;;;7.80;99.90;;;;;;5071975;28;20044;-52
2023/04/10 04:04:54;;;;;;;33.75;20.17;;;7.70;99.90;;;;;;5071999;28;20365;-58
2023/04/10 04:07:19;;;;;;;31.70;19.17;;;7.70;99.90;;;;;;5071966;28;20032;-54
2023/04/10 04:09:45;;;;;;;32.90;18.95;;;7.70;99.90;;;;;;5070412;28;20484;-56
2023/04/10 04:12:11;;;;;;;30.38;17.98;;;7.80;99.90;;;;;;5071780;28;20032;-55
2023/04/10 04:14:37;;;;;;;30.50;17.77;;;8.00;99.90;;;;;;5070688;28;20356;-54
2023/04/10 04:17:03;;;;;;;29.33;22.98;;;7.70;99.90;;;;;;5071455;28;20032;-54
2023/04/10 04:19:29;;;;;;;31.35;17.98;;;7.70;99.90;;;;;;5071547;28;20043;-54
2023/04/10 04:21:54;;;;;;;32.10;18.27;;;7.80;99.90;;;;;;5070579;28;20056;-53
2023/04/10 04:24:20;;;;;;;32.10;18.38;;;7.70;99.90;;;;;;5071463;28;20044;-54
2023/04/10 04:26:46;;;;;;;28.55;17.60;;;7.80;99.90;;;;;;5070652;28;20045;-54
2023/04/10 04:29:12;;;;;;;31.48;17.58;;;7.80;99.90;;;;;;5071831;28;20039;-53
2023/04/10 04:31:37;;;;;;;27.80;17.52;;;7.80;99.90;;;;;;5071869;28;20082;-55
2023/04/10 04:34:03;;;;;;;30.48;16.60;;;7.80;99.90;;;;;;5072017;28;20059;-52
2023/04/10 04:36:30;;;;;;;28.77;21.48;;;7.80;99.90;;;;;;5071208;28;20372;-58
2023/04/10 04:38:55;;;;;;;27.00;16.67;;;7.80;99.90;;;;;;5071119;28;20541;-55
2023/04/10 04:41:21;;;;;;;28.52;16.80;;;7.80;99.90;;;;;;5071091;28;20044;-54
2023/04/10 04:43:48;;;;;;;29.23;17.30;;;7.80;99.90;;;;;;5071301;28;20036;-53
2023/04/10 04:46:14;;;;;;;27.88;15.63;;;7.80;99.90;;;;;;5071498;28;20028;-57
2023/04/10 04:48:40;;;;;;;27.55;15.88;;;7.80;99.90;;;;;;5071083;28;20081;-60
2023/04/10 04:51:06;;;;;;;25.45;15.82;;;7.80;99.90;;;;;;5070730;28;20423;-59
2023/04/10 04:53:32;;;;;;;25.27;15.93;;;7.80;99.90;;;;;;5070791;28;20039;-54
2023/04/10 04:55:57;;;;;;;26.92;16.48;;;7.80;99.90;;;;;;5070790;28;20044;-56
2023/04/10 04:58:23;;;;;;;26.92;16.65;;;7.80;99.90;;;;;;5070455;28;20495;-55
2023/04/10 05:00:51;;;;;;;25.90;16.05;;;7.70;99.90;;;;;;5069462;28;20040;-56
2023/04/10 05:03:16;;;;;;;24.80;15.45;;;7.70;99.90;;;;;;5070018;28;20589;-56
2023/04/10 05:05:42;;;;;;;26.52;15.88;;;7.70;99.90;;;;;;5069373;28;20127;-54
2023/04/10 05:08:08;;;;;;;27.33;15.18;;;7.80;99.90;;;;;;5070567;28;20103;-58
2023/04/10 05:10:34;;;;;;;26.25;15.85;;;7.80;99.90;;;;;;5070447;28;20465;-53
2023/04/10 05:12:59;;;;;;;25.13;15.45;;;7.90;99.90;;;;;;5070703;28;20047;-56
2023/04/10 05:15:25;;;;;;;25.63;15.43;;;7.80;99.90;;;;;;5070675;28;20044;-55
2023/04/10 05:17:51;;;;;;;28.55;16.48;;;8.00;99.90;;;;;;5070499;28;20506;-57
2023/04/10 05:20:17;;;;;;;24.52;14.73;;;7.80;99.90;;;;;;5070148;28;20048;-58
2023/04/10 05:22:43;;;;;;;24.90;15.52;;;7.80;99.90;;;;;;5070570;28;20122;-58
2023/04/10 05:25:09;;;;;;;27.08;15.43;;;7.80;99.90;;;;;;5068987;28;20151;-57
2023/04/10 05:27:35;;;;;;;27.08;16.02;;;7.80;99.90;;;;;;5069989;28;20032;-58
2023/04/10 05:30:02;;;;;;;29.20;15.95;;;7.80;99.90;;;;;;5068981;28;20048;-57
2023/04/10 05:32:28;;;;;;;24.00;14.68;;;7.70;99.90;;;;;;5070537;28;20471;-57
2023/04/10 05:34:54;;;;;;;25.42;15.25;;;8.10;99.90;;;;;;5069606;28;20155;-57
2023/04/10 05:37:19;;;;;;;25.13;15.20;;;7.80;99.90;;;;;;5070431;28;20112;-56
2023/04/10 05:39:45;;;;;;;25.70;15.40;;;7.80;99.90;;;;;;5068842;28;20174;-56
2023/04/10 05:42:12;;;;;;;27.15;15.50;;;7.80;99.90;;;;;;5070103;28;20490;-50
2023/04/10 05:44:38;;;;;;;26.33;15.10;;;7.80;99.90;;;;;;5070503;28;20047;-53
2023/04/10 05:47:04;;;;;;;29.20;16.95;;;7.80;99.90;;;;;;5069270;28;20429;-59
2023/04/10 05:49:29;;;;;;;27.00;16.38;;;7.90;99.90;;;;;;5074338;28;20058;-55
2023/04/10 05:51:55;;;;;;;25.88;15.13;;;7.90;99.90;;;;;;5071746;28;20078;-54
2023/04/10 05:54:21;;;;;;;25.88;15.82;;;8.10;99.90;;;;;;5072518;28;20033;-56
2023/04/10 05:56:47;;;;;;;25.77;15.13;;;7.90;99.90;;;;;;5073722;28;20048;-57
2023/04/10 05:59:12;;;;;;;25.98;15.25;;;8.00;99.90;;;;;;5072945;28;20453;-53
2023/04/10 06:01:39;;;;;;;23.85;19.67;;;7.90;99.90;;;;;;5074091;28;20078;-52
2023/04/10 06:04:05;;;;;;;26.45;15.23;;;8.10;99.90;;;;;;5074479;28;20566;-57
2023/04/10 06:06:32;;;;;;;24.63;14.60;;;8.10;99.90;;;;;;5071622;28;20113;-57
2023/04/10 06:08:57;;;;;;;25.08;15.00;;;8.10;99.90;;;;;;5074464;28;20032;-57
2023/04/10 06:11:23;;;;;;;26.63;14.50;;;8.10;99.90;;;;;;5071104;28;20055;-53
2023/04/10 06:13:49;;;;;;;22.50;14.00;;;8.20;99.90;;;;;;5072276;28;20098;-57
2023/04/10 06:16:15;;;;;;;23.13;14.40;;;8.30;99.90;;;;;;5073832;28;20039;-56
2023/04/10 06:18:41;;;;;;;24.15;15.18;;;8.30;99.90;;;;;;5073172;28;20032;-53
2023/04/10 06:21:07;;;;;;;25.60;14.70;;;8.40;99.90;;;;;;5070889;28;20507;-59
2023/04/10 06:23:33;;;;;;;24.65;15.20;;;8.40;99.90;;;;;;5072990;28;20043;-60
2023/04/10 06:25:59;;;;;;;24.50;13.65;;;8.40;99.90;;;;;;5073066;28;20036;-54
2023/04/10 06:28:25;;;;;;;24.02;15.15;;;8.50;99.90;;;;;;5071642;28;20039;-57
2023/04/10 06:30:51;;;;;;;24.27;13.63;;;8.50;99.90;;;;;;5073464;28;20037;-50
2023/04/10 06:33:16;;;;;;;23.70;13.73;;;8.60;99.90;;;;;;5065518;28;20491;-51
2023/04/10 06:35:42;;;;;;;26.08;14.13;;;8.60;99.90;;;;;;5068665;28;20032;-55
2023/04/10 06:38:08;;;;;;;23.23;14.77;;;8.70;99.90;;;;;;5069682;28;20166;-49
2023/04/10 06:40:34;;;;;;;23.95;14.40;;;8.70;99.90;;;;;;5069921;28;20058;-54
2023/04/10 06:43:00;;;;;;;24.17;14.75;;;8.70;99.90;;;;;;5056262;28;20040;-56
2023/04/10 06:45:26;;;;;;;22.50;17.08;;;8.70;99.90;;;;;;5049672;28;20391;-55
2023/04/10 06:47:52;;;;;;;23.45;13.45;;;8.80;99.90;;;;;;5079229;28;20089;-54
2023/04/10 06:50:17;;;;;;;20.98;13.38;;;9.00;99.90;;;;;;5074393;28;20449;-58
2023/04/10 06:52:44;;;;;;;22.52;14.48;;;8.90;99.90;;;;;;5074647;28;20043;-55
2023/04/10 06:55:11;;;;;;;22.85;14.75;;;9.00;99.90;;;;;;5073618;28;20064;-56
2023/04/10 06:57:38;;;;;;;22.70;13.68;;;9.10;99.90;;;;;;5071185;28;20493;-53
2023/04/10 07:00:05;;;;;;;23.60;13.77;;;9.10;99.90;;;;;;5070784;28;20094;-54
2023/04/10 07:02:31;;;;;;;23.65;14.15;;;9.20;99.90;;;;;;5073458;28;20028;-57
2023/04/10 07:04:56;;;;;;;23.80;14.63;;;9.20;99.90;;;;;;5074702;28;20048;-51
2023/04/10 07:07:22;;;;;;;22.10;13.13;;;9.20;99.90;;;;;;5073561;28;20047;-54
2023/04/10 07:09:48;;;;;;;23.23;13.52;;;9.30;99.90;;;;;;5075771;28;20042;-55
2023/04/10 07:12:14;;;;;;;21.95;14.05;;;9.40;99.90;;;;;;5073905;28;20123;-54
2023/04/10 07:14:40;;;;;;;23.73;14.00;;;9.50;99.90;;;;;;5072903;28;20036;-57
2023/04/10 07:17:06;;;;;;;22.75;14.05;;;9.60;99.90;;;;;;5072892;28;20169;-55
2023/04/10 07:19:31;;;;;;;23.15;14.40;;;9.70;99.90;;;;;;5074082;28;20044;-59
2023/04/10 07:21:57;;;;;;;22.70;13.52;;;9.80;99.90;;;;;;5074801;28;20052;-54
2023/04/10 07:24:23;;;;;;;21.48;12.48;;;9.90;99.90;;;;;;5074319;28;20391;-57
2023/04/10 07:26:49;;;;;;;21.02;14.27;;;10.00;99.90;;;;;;5074114;28;20124;-56
2023/04/10 07:29:14;;;;;;;19.38;12.40;;;10.10;99.90;;;;;;5074799;28;20032;-59
2023/04/10 07:31:40;;;;;;;24.13;13.77;;;10.20;99.90;;;;;;5074938;28;20376;-53
2023/04/10 07:34:06;;;;;;;22.77;14.07;;;10.30;99.90;;;;;;5073590;28;20067;-53
2023/04/10 07:36:33;;;;;;;18.45;13.00;;;10.40;99.90;;;;;;5073542;28;20451;-57
2023/04/10 07:38:58;;;;;;;20.92;12.85;;;10.50;99.90;;;;;;5072109;28;20390;-59
2023/04/10 07:41:24;;;;;;;19.00;12.45;;;10.60;99.90;;;;;;5073567;28;20028;-60
2023/04/10 07:43:50;;;;;;;17.65;12.43;;;10.70;99.90;;;;;;5074410;28;20067;-54
2023/04/10 07:46:16;;;;;;;20.33;12.40;;;10.80;99.90;;;;;;5075167;28;20120;-57
2023/04/10 07:48:43;;;;;;;19.67;13.27;;;10.90;99.90;;;;;;5072481;28;20468;-58
2023/04/10 07:51:08;;;;;;;18.23;12.73;;;11.00;99.90;;;;;;5071438;28;20036;-57
2023/04/10 07:53:37;;;;;;;18.40;12.20;;;11.00;99.90;;;;;;5075625;28;20048;-55
2023/04/10 07:56:04;;;;;;;19.38;12.60;;;11.00;99.90;;;;;;5072699;28;20564;-60
2023/04/10 07:58:30;;;;;;;19.65;12.23;;;11.10;99.90;;;;;;5068495;28;20062;-53
2023/04/10 08:00:56;;;;;;;15.95;11.38;;;11.10;99.90;;;;;;5071171;28;20161;-52
2023/04/10 08:03:22;;;;;;;16.10;11.32;;;11.20;99.90;;;;;;5073293;28;20075;-54
2023/04/10 08:05:48;;;;;;;18.40;12.43;;;11.30;99.90;;;;;;5073581;28;20389;-55
2023/04/10 08:08:15;;;;;;;19.35;12.90;;;11.30;99.90;;;;;;5071805;28;20182;-53
2023/04/10 08:10:40;;;;;;;17.52;11.70;;;11.30;99.90;;;;;;5073692;28;20119;-57
2023/04/10 08:13:06;;;;;;;17.27;11.73;;;11.40;99.90;;;;;;5073936;28;20139;-56
2023/04/10 08:15:32;;;;;;;15.82;11.20;;;11.50;99.90;;;;;;5073968;28;20382;-54
2023/04/10 08:17:58;;;;;;;18.23;12.27;;;11.50;99.90;;;;;;5069786;28;20062;-56
2023/04/10 08:20:23;;;;;;;19.33;12.20;;;11.60;99.90;;;;;;5069293;28;20087;-55
2023/04/10 08:22:49;;;;;;;17.80;11.95;;;11.60;99.90;;;;;;5071529;28;20043;-54
2023/04/10 08:25:15;;;;;;;16.88;12.60;;;11.70;99.90;;;;;;5070405;28;20043;-57
2023/04/10 08:27:41;;;;;;;16.73;11.25;;;11.80;99.90;;;;;;5068781;28;20039;-53
2023/04/10 08:30:07;;;;;;;16.05;11.63;;;11.80;99.90;;;;;;5069950;28;20040;-59
2023/04/10 08:32:33;;;;;;;15.88;11.13;;;11.90;99.90;;;;;;5069212;28;20060;-57
2023/04/10 08:34:58;;;;;;;17.08;12.10;;;11.90;99.90;;;;;;5069374;28;20150;-53
2023/04/10 08:37:25;;;;;;;15.68;10.68;;;12.00;99.90;;;;;;5070326;28;20033;-52
2023/04/10 08:39:51;;;;;;;16.60;11.15;;;12.10;99.90;;;;;;5068583;28;20036;-58
2023/04/10 08:42:17;;;;;;;16.90;10.65;;;12.20;99.90;;;;;;5070840;28;20055;-50
2023/04/10 08:44:42;;;;;;;16.48;12.07;;;12.30;99.90;;;;;;5070940;28;20035;-51
2023/04/10 08:47:09;;;;;;;16.27;11.18;;;12.40;99.90;;;;;;5066557;28;20047;-57
2023/04/10 08:49:52;;;;;;;15.57;11.05;;;12.40;99.90;;;;;;5070022;28;20078;-55
2023/04/10 08:52:21;;;;;;;14.05;10.80;;;12.50;99.90;;;;;;5069228;28;20048;-50
2023/04/10 08:54:52;;;;;;;16.30;11.77;;;12.60;99.90;;;;;;5067839;28;20040;-53
2023/04/10 08:57:19;;;;;;;19.88;10.80;;;12.70;99.90;;;;;;5070101;28;20051;-54
2023/04/10 08:59:50;;;;;;;15.50;11.23;;;12.70;99.90;;;;;;5068463;28;20048;-56
2023/04/10 09:02:17;;;;;;;15.50;11.20;;;12.90;99.90;;;;;;5069928;28;20588;-53
2023/04/10 09:04:51;;;;;;;15.70;10.98;;;13.00;99.90;;;;;;5069967;28;20044;-56
2023/04/10 09:07:17;;;;;;;14.05;10.07;;;13.10;99.90;;;;;;5070487;28;20467;-55
2023/04/10 09:09:43;;;;;;;15.30;10.27;;;13.10;99.90;;;;;;5069835;28;20050;-56
2023/04/10 09:12:09;;;;;;;14.15;11.25;;;13.20;99.90;;;;;;5070712;28;20036;-53
2023/04/10 09:14:36;;;;;;;14.82;11.00;;;13.30;99.90;;;;;;5070455;28;20044;-57
2023/04/10 09:17:30;;;;;;;15.98;10.68;;;13.40;99.90;;;;;;5069577;28;20041;-57
2023/04/10 09:19:56;;;;;;;13.85;9.57;;;13.40;99.90;;;;;;5070311;28;20040;-56
2023/04/10 09:22:30;;;;;;;13.00;10.35;;;13.40;99.90;;;;;;5070544;28;20063;-56
2023/04/10 09:24:58;;;;;;;13.57;10.15;;;13.40;99.90;;;;;;5069961;28;20037;-52
2023/04/10 09:27:30;;;;;;;12.15;9.02;;;13.30;99.90;;;;;;5070366;28;20031;-58
2023/04/10 09:29:56;;;;;;;11.82;9.50;;;13.40;99.90;;;;;;5070552;28;20116;-57
2023/04/10 09:32:42;;;;;;;11.85;9.43;;;13.40;99.90;;;;;;5070106;28;20051;-56
2023/04/10 09:35:09;;;;;;;11.40;9.23;;;13.60;99.90;;;;;;5070378;28;20067;-57
2023/04/10 09:37:36;;;;;;;13.48;9.10;;;13.70;99.90;;;;;;5070536;28;20518;-51
2023/04/10 09:40:03;;;;;;;12.32;9.60;;;13.70;99.90;;;;;;5070045;28;20037;-53
2023/04/10 09:42:36;;;;;;;12.40;8.57;;;13.80;99.90;;;;;;5070410;28;20040;-52
2023/04/10 09:45:03;;;;;;;11.40;9.30;;;13.80;99.90;;;;;;5069497;28;20380;-54
2023/04/10 09:47:30;;;;;;;13.75;9.70;;;13.90;99.90;;;;;;5069347;28;20028;-54
2023/04/10 09:49:59;;;;;;;11.23;8.95;;;13.80;99.90;;;;;;5068106;28;20115;-55
2023/04/10 09:52:35;;;;;;;12.43;8.57;;;13.80;99.90;;;;;;5062620;28;20047;-59
2023/04/10 09:55:08;;;;;;;11.20;8.80;;;13.90;99.90;;;;;;5069527;28;20075;-60
2023/04/10 09:57:35;;;;;;;12.98;9.00;;;13.90;99.90;;;;;;5069944;28;20541;-51
2023/04/10 10:00:07;;;;;;;11.40;9.23;;;13.90;99.90;;;;;;5072484;28;20070;-57
2023/04/10 10:02:40;;;;;;;10.38;8.48;;;13.90;99.90;;;;;;5071470;28;20040;-53
2023/04/10 10:05:07;;;;;;;11.55;9.10;;;14.00;99.90;;;;;;5073895;28;20036;-57
2023/04/10 10:07:33;;;;;;;12.70;8.40;;;14.00;99.90;;;;;;5073881;28;20064;-57
2023/04/10 10:10:02;;;;;;;12.25;9.30;;;14.00;99.90;;;;;;5072807;28;20032;-55
2023/04/10 10:12:28;;;;;;;12.38;8.98;;;14.00;99.90;;;;;;5073571;28;20044;-54
2023/04/10 10:15:00;;;;;;;13.00;8.90;;;14.00;99.90;;;;;;5071093;28;20033;-54
2023/04/10 10:17:33;;;;;;;10.90;8.73;;;14.10;99.90;;;;;;5070270;28;20044;-57
2023/04/10 10:20:08;;;;;;;11.45;8.68;;;14.10;99.90;;;;;;5072362;28;20060;-55
2023/04/10 10:22:35;;;;;;;11.77;8.75;;;14.10;99.90;;;;;;5077314;28;20051;-54
2023/04/10 10:25:02;;;;;;;11.07;8.45;;;14.20;99.90;;;;;;5076562;28;20069;-57
2023/04/10 10:27:31;;;;;;;10.45;8.77;;;14.20;99.90;;;;;;5075518;28;20111;-56
2023/04/10 10:29:59;;;;;;;10.98;9.02;;;14.20;99.90;;;;;;5070044;28;20138;-54
2023/04/10 10:32:26;;;;;;;10.50;8.43;;;14.10;99.90;;;;;;5077417;28;20051;-55
2023/04/10 10:34:53;;;;;;;11.35;8.98;;;14.20;99.90;;;;;;5076047;28;20476;-54
2023/04/10 10:37:21;;;;;;;12.35;8.63;;;14.20;99.90;;;;;;5073467;28;20047;-57
2023/04/10 10:40:26;;;;;;;10.43;8.45;;;14.20;99.90;;;;;;5073204;28;20048;-52
2023/04/10 10:43:11;;;;;;;11.15;9.55;;;14.30;99.90;;;;;;5073479;28;20119;-55
2023/04/10 10:45:40;;;;;;;10.90;8.52;;;14.40;99.90;;;;;;5071957;28;20072;-52
2023/04/10 10:48:06;;;;;;;9.35;7.50;;;14.40;99.90;;;;;;5073573;28;20087;-56
2023/04/10 10:50:51;;;;;;;10.25;8.35;;;14.50;99.90;;;;;;5072930;28;20491;-57
2023/04/10 10:53:35;;;;;;;9.77;8.35;;;14.50;99.90;;;;;;5073538;28;20052;-55
2023/04/10 10:56:21;;;;;;;12.13;8.68;;;14.50;99.90;;;;;;5072799;28;20052;-54
2023/04/10 10:58:48;;;;;;;10.82;8.95;;;14.50;99.90;;;;;;5073013;28;20048;-53
2023/04/10 11:01:14;;;;;;;11.68;8.20;;;14.50;99.90;;;;;;5073060;28;20035;-54
2023/04/10 11:03:43;;;;;;;10.32;8.40;;;14.50;99.90;;;;;;5073421;28;20036;-57
2023/04/10 11:06:15;;;;;;;9.85;8.40;;;14.50;99.90;;;;;;5073237;28;20574;-54
2023/04/10 11:08:44;;;;;;;14.10;8.55;;;14.50;99.90;;;;;;5069676;28;20048;-55
2023/04/10 11:11:26;;;;;;;10.52;8.05;;;14.50;99.90;;;;;;5072837;28;20045;-53
2023/04/10 11:13:52;;;;;;;9.85;7.97;;;14.50;99.90;;;;;;5076923;28;20414;-54
2023/04/10 11:16:19;;;;;;;9.85;8.27;;;14.50;99.90;;;;;;5077857;28;20040;-50
2023/04/10 11:18:45;;;;;;;9.90;7.75;;;14.50;99.90;;;;;;5075864;28;20047;-56
2023/04/10 11:21:18;;;;;;;10.68;8.63;;;14.50;99.90;;;;;;5070086;28;20625;-54
2023/04/10 11:23:56;;;;;;;10.97;8.20;;;14.60;99.90;;;;;;5074091;28;20032;-54
2023/04/10 11:26:34;;;;;;;10.52;8.32;;;14.70;99.90;;;;;;5074939;28;20059;-54
2023/04/10 11:29:18;;;;;;;11.50;7.68;;;14.80;99.90;;;;;;5073934;28;20036;-59
2023/04/10 11:31:44;;;;;;;;;;;14.80;99.90;;;;;;5073706;28;20033;-52
2023/04/10 11:34:10;;;;;;;9.65;7.63;;;14.80;99.90;;;;;;5076345;28;19923;-58
2023/04/10 11:36:41;;;;;;;10.15;8.07;;;14.90;99.90;;;;;;5075740;28;20129;-55
2023/04/10 11:39:12;;;;;;;10.70;8.30;;;15.00;99.90;;;;;;5074144;28;20048;-52
2023/04/10 11:41:42;;;;;;;9.60;8.10;;;15.00;99.90;;;;;;5074310;28;20166;-56
2023/04/10 11:44:10;;;;;;;9.93;7.82;;;15.10;99.90;;;;;;5071860;28;20145;-54
2023/04/10 11:46:40;;;;;;;9.52;7.68;;;15.20;99.90;;;;;;5073831;28;20037;-56
2023/04/10 11:49:10;;;;;;;9.88;8.00;;;15.20;99.90;;;;;;5069647;28;20040;-52
2023/04/10 11:51:38;;;;;;;10.95;7.97;;;15.30;99.90;;;;;;5065804;28;20040;-55
2023/04/10 11:54:15;;;;;;;9.27;7.60;;;15.30;99.90;;;;;;5069040;28;20036;-53
2023/04/10 11:56:44;;;;;;;9.95;7.22;;;15.50;99.90;;;;;;5069210;28;20181;-56
2023/04/10 11:59:12;;;;;;;9.15;7.30;;;15.70;99.90;;;;;;5071196;28;20037;-52
2023/04/10 12:01:39;;;;;;;9.18;6.95;;;15.80;99.90;;;;;;5071604;28;20040;-50
2023/04/10 12:04:13;;;;;;;10.02;7.00;;;16.00;99.90;;;;;;5072028;28;20435;-56
2023/04/10 12:06:43;;;;;;;10.45;7.00;;;16.20;99.90;;;;;;5071814;28;20086;-54
2023/04/10 12:09:14;;;;;;;8.57;7.15;;;16.10;99.90;;;;;;5071701;28;20483;-49
2023/04/10 12:11:51;;;;;;;8.73;5.97;;;16.00;99.90;;;;;;5071836;28;20471;-55
2023/04/10 12:14:21;;;;;;;8.18;6.72;;;15.80;99.90;;;;;;5071652;28;20399;-55
2023/04/10 12:16:47;;;;;;;8.00;6.70;;;15.70;99.90;;;;;;5070381;28;20048;-53
2023/04/10 12:19:15;;;;;;;8.10;6.43;;;15.80;99.90;;;;;;5071694;28;20123;-57
2023/04/10 12:21:44;;;;;;;8.70;6.68;;;15.70;99.90;;;;;;5071254;28;20135;-56
2023/04/10 12:24:12;;;;;;;8.88;6.45;;;15.70;99.90;;;;;;5071544;28;20047;-58
2023/04/10 12:26:38;;;;;;;8.35;6.45;;;15.70;99.90;;;;;;5071336;28;20037;-59
2023/04/10 12:29:06;;;;;;;8.32;6.43;;;15.60;99.90;;;;;;5071076;28;20123;-56
2023/04/10 12:31:35;;;;;;;10.07;6.55;;;15.50;99.90;;;;;;5071348;28;20060;-51
2023/04/10 12:34:05;;;;;;;8.57;6.82;;;15.50;99.90;;;;;;5071548;28;20048;-56
2023/04/10 12:36:33;;;;;;;10.77;6.68;;;15.50;99.90;;;;;;5071244;28;20036;-55
2023/04/10 12:39:02;;;;;;;8.98;6.32;;;15.40;99.90;;;;;;5071180;28;20136;-57
2023/04/10 12:41:30;;;;;;;8.23;6.40;;;15.40;99.90;;;;;;5071260;28;20521;-54